createdAt,value
2023-03-07T00:00:16.699Z,7.28
2023-03-07T00:02:43.858Z,7.15
2023-03-07T00:05:10.866Z,7.25
2023-03-07T00:07:37.822Z,8.10
2023-03-07T00:10:05.176Z,7.47
2023-03-07T00:12:32.126Z,7.95
2023-03-07T00:14:59.106Z,9.45
2023-03-07T00:17:26.134Z,8.52
2023-03-07T00:19:53.134Z,10.77
2023-03-07T00:22:20.116Z,10.90
2023-03-07T00:24:48.890Z,11.27
2023-03-07T00:27:15.797Z,12.00
2023-03-07T00:29:42.813Z,10.40
2023-03-07T00:32:09.880Z,9.88
2023-03-07T00:34:36.853Z,10.80
2023-03-07T00:37:03.835Z,11.18
2023-03-07T00:39:30.768Z,11.50
2023-03-07T00:41:57.760Z,10.13
2023-03-07T00:44:25.551Z,10.60
2023-03-07T00:46:53.081Z,10.65
2023-03-07T00:49:20.949Z,10.73
2023-03-07T00:51:48.510Z,9.25
2023-03-07T00:54:16.151Z,9.40
2023-03-07T00:56:43.069Z,9.50
2023-03-07T00:59:10.497Z,9.45
2023-03-07T01:01:38.155Z,9.13
2023-03-07T01:04:05.362Z,7.88
2023-03-07T01:06:33.633Z,8.02
2023-03-07T01:09:05.422Z,8.35
2023-03-07T01:11:33.483Z,7.13
2023-03-07T01:14:04.448Z,7.53
2023-03-07T01:16:37.456Z,6.97
2023-03-07T01:19:09.585Z,7.43
2023-03-07T01:21:39.685Z,7.68
2023-03-07T01:24:10.733Z,7.15
2023-03-07T01:26:37.811Z,6.78
2023-03-07T01:29:06.635Z,6.70
2023-03-07T01:31:35.918Z,6.35
2023-03-07T01:34:05.076Z,6.25
2023-03-07T01:36:36.438Z,5.60
2023-03-07T01:39:14.066Z,5.20
2023-03-07T01:41:46.529Z,5.47
2023-03-07T01:44:18.096Z,6.72
2023-03-07T01:46:54.365Z,5.65
2023-03-07T01:49:49.964Z,5.80
2023-03-07T01:52:25.734Z,5.72
2023-03-07T01:55:03.582Z,6.45
2023-03-07T01:57:36.254Z,4.95
2023-03-07T02:00:11.556Z,4.90
2023-03-07T02:02:46.189Z,5.80
2023-03-07T02:05:29.228Z,4.63
2023-03-07T02:07:59.324Z,4.43
2023-03-07T02:10:30.257Z,3.92
2023-03-07T02:12:57.762Z,4.68
2023-03-07T02:15:24.959Z,4.50
2023-03-07T02:17:52.375Z,3.60
2023-03-07T02:20:27.927Z,4.47
2023-03-07T02:22:55.905Z,3.67
2023-03-07T02:25:32.828Z,4.95
2023-03-07T02:28:02.061Z,4.05
2023-03-07T02:30:29.051Z,3.83
2023-03-07T02:32:56.033Z,4.82
2023-03-07T02:35:25.496Z,4.07
2023-03-07T02:37:59.982Z,4.53
2023-03-07T02:40:31.606Z,3.55
2023-03-07T02:43:05.900Z,3.88
2023-03-07T02:45:32.841Z,5.45
2023-03-07T02:47:59.842Z,4.45
2023-03-07T02:50:28.296Z,3.95
2023-03-07T02:52:55.298Z,3.03
2023-03-07T02:55:22.994Z,3.65
2023-03-07T02:57:57.437Z,3.47
2023-03-07T03:00:24.647Z,3.20
2023-03-07T03:02:52.069Z,4.10
2023-03-07T03:05:20.256Z,4.15
2023-03-07T03:07:48.550Z,4.25
2023-03-07T03:10:16.120Z,4.30
2023-03-07T03:12:43.329Z,5.13
2023-03-07T03:15:11.894Z,3.92
2023-03-07T03:17:39.236Z,4.70
2023-03-07T03:20:08.721Z,4.57
2023-03-07T03:22:36.211Z,4.53
2023-03-07T03:25:08.601Z,4.03
2023-03-07T03:27:37.228Z,4.60
2023-03-07T03:30:07.048Z,4.70
2023-03-07T03:32:38.205Z,5.40
2023-03-07T03:35:07.134Z,5.28
2023-03-07T03:37:34.845Z,4.75
2023-03-07T03:40:14.119Z,5.28
2023-03-07T03:42:44.021Z,4.93
2023-03-07T03:45:14.963Z,5.88
2023-03-07T03:47:42.347Z,4.18
2023-03-07T03:50:10.471Z,4.88
2023-03-07T03:52:37.645Z,4.13
2023-03-07T03:55:05.928Z,4.75
2023-03-07T03:57:33.005Z,4.03
2023-03-07T03:59:59.975Z,4.10
2023-03-07T04:02:30.379Z,3.50
2023-03-07T04:04:57.665Z,4.78
2023-03-07T04:07:25.220Z,3.85
2023-03-07T04:09:52.190Z,3.65
2023-03-07T04:12:19.099Z,4.55
2023-03-07T04:14:46.249Z,3.83
2023-03-07T04:17:13.192Z,4.20
2023-03-07T04:19:40.138Z,4.68
2023-03-07T04:22:08.624Z,4.75
2023-03-07T04:24:36.506Z,4.10
2023-03-07T04:27:03.779Z,3.50
2023-03-07T04:29:31.663Z,3.72
2023-03-07T04:32:04.331Z,4.35
2023-03-07T04:34:31.384Z,3.63
2023-03-07T04:36:58.465Z,3.63
2023-03-07T04:39:25.536Z,4.07
2023-03-07T04:41:52.834Z,3.70
2023-03-07T04:44:22.393Z,3.60
2023-03-07T04:46:49.346Z,3.75
2023-03-07T04:49:17.153Z,2.90
2023-03-07T04:51:44.272Z,3.03
2023-03-07T04:54:13.621Z,3.25
2023-03-07T04:56:41.458Z,3.05
2023-03-07T04:59:10.619Z,3.38
2023-03-07T05:01:37.905Z,3.83
2023-03-07T05:04:05.238Z,3.25
2023-03-07T05:06:32.358Z,4.57
2023-03-07T05:08:59.524Z,3.00
2023-03-07T05:11:27.038Z,2.83
2023-03-07T05:13:54.263Z,3.03
2023-03-07T05:16:23.012Z,3.25
2023-03-07T05:18:50.391Z,2.47
2023-03-07T05:21:18.057Z,2.63
2023-03-07T05:23:45.253Z,3.05
2023-03-07T05:26:13.130Z,2.40
2023-03-07T05:28:40.521Z,3.50
2023-03-07T05:31:08.120Z,2.40
2023-03-07T05:33:35.106Z,2.83
2023-03-07T05:36:03.763Z,2.97
2023-03-07T05:38:31.933Z,2.38
2023-03-07T05:40:58.935Z,3.40
2023-03-07T05:43:26.126Z,3.08
2023-03-07T05:45:53.273Z,2.17
2023-03-07T05:48:20.373Z,1.80
2023-03-07T05:50:47.363Z,1.83
2023-03-07T05:53:16.097Z,2.63
2023-03-07T05:55:43.056Z,1.73
2023-03-07T05:58:10.174Z,1.98
2023-03-07T06:00:37.196Z,2.63
2023-03-07T06:03:04.834Z,2.75
2023-03-07T06:05:32.894Z,1.20
2023-03-07T06:08:00.129Z,2.60
2023-03-07T06:10:27.210Z,2.15
2023-03-07T06:12:54.444Z,1.77
2023-03-07T06:15:23.200Z,1.92
2023-03-07T06:17:54.669Z,2.00
2023-03-07T06:20:21.690Z,2.13
2023-03-07T06:22:50.227Z,2.20
2023-03-07T06:25:17.253Z,2.00
2023-03-07T06:27:44.437Z,1.40
2023-03-07T06:30:13.300Z,1.15
2023-03-07T06:32:40.996Z,1.40
2023-03-07T06:35:09.638Z,1.10
2023-03-07T06:37:36.966Z,1.10
2023-03-07T06:40:06.469Z,1.40
2023-03-07T06:42:35.917Z,1.33
2023-03-07T06:45:05.770Z,1.23
2023-03-07T06:47:33.493Z,1.13
2023-03-07T06:50:02.311Z,1.77
2023-03-07T06:52:30.983Z,1.00
2023-03-07T06:55:01.160Z,2.38
2023-03-07T06:57:29.806Z,1.48
2023-03-07T06:59:56.930Z,0.75
2023-03-07T07:02:24.090Z,1.10
2023-03-07T07:04:51.221Z,0.80
2023-03-07T07:07:18.593Z,0.80
2023-03-07T07:09:46.068Z,2.05
2023-03-07T07:12:13.051Z,0.57
2023-03-07T07:14:40.079Z,0.47
2023-03-07T07:17:07.006Z,1.10
2023-03-07T07:19:34.357Z,0.75
2023-03-07T07:22:01.594Z,1.00
2023-03-07T07:24:28.605Z,1.50
2023-03-07T07:26:55.902Z,1.08
2023-03-07T07:29:23.614Z,1.45
2023-03-07T07:31:51.964Z,0.95
2023-03-07T07:34:20.220Z,0.77
2023-03-07T07:36:47.937Z,0.80
2023-03-07T07:39:15.413Z,0.45
2023-03-07T07:41:45.266Z,0.80
2023-03-07T07:44:13.617Z,1.20
2023-03-07T07:46:54.720Z,1.23
2023-03-07T07:49:21.875Z,1.08
2023-03-07T07:51:50.248Z,1.35
2023-03-07T07:54:17.491Z,1.10
2023-03-07T07:56:44.721Z,0.80
2023-03-07T07:59:12.646Z,0.95
2023-03-07T08:01:39.821Z,1.10
2023-03-07T08:04:07.034Z,0.80
2023-03-07T08:06:34.439Z,0.60
2023-03-07T08:09:01.592Z,1.10
2023-03-07T08:11:31.033Z,0.70
2023-03-07T08:13:58.141Z,0.65
2023-03-07T08:16:26.157Z,0.70
2023-03-07T08:18:56.444Z,0.82
2023-03-07T08:21:25.439Z,1.08
2023-03-07T08:23:55.248Z,1.33
2023-03-07T08:26:23.066Z,0.88
2023-03-07T08:28:50.218Z,0.80
2023-03-07T08:31:24.305Z,1.00
2023-03-07T08:33:52.489Z,0.77
2023-03-07T08:36:20.568Z,0.82
2023-03-07T08:38:52.196Z,0.98
2023-03-07T08:41:21.051Z,0.90
2023-03-07T08:43:48.541Z,0.90
2023-03-07T08:46:16.371Z,1.20
2023-03-07T08:48:43.769Z,0.90
2023-03-07T08:51:15.735Z,0.80
2023-03-07T08:53:44.514Z,1.25
2023-03-07T08:56:15.200Z,0.80
2023-03-07T08:58:43.351Z,1.10
2023-03-07T09:01:13.055Z,0.93
2023-03-07T09:03:40.730Z,0.95
2023-03-07T09:06:08.382Z,0.98
2023-03-07T09:08:35.730Z,1.00
2023-03-07T09:11:05.555Z,1.30
2023-03-07T09:13:36.198Z,1.90
2023-03-07T09:16:07.162Z,1.67
2023-03-07T09:18:36.258Z,1.70
2023-03-07T09:21:05.312Z,1.92
2023-03-07T09:23:32.958Z,2.13
2023-03-07T09:26:01.900Z,2.35
2023-03-07T09:28:30.145Z,2.42
2023-03-07T09:30:57.681Z,2.83
2023-03-07T09:33:24.847Z,2.88
2023-03-07T09:35:55.714Z,4.25
2023-03-07T09:38:23.007Z,2.97
2023-03-07T09:40:50.332Z,2.53
2023-03-07T09:43:23.448Z,3.50
2023-03-07T09:47:02.391Z,2.83
2023-03-07T09:49:56.198Z,2.95
2023-03-07T09:52:33.902Z,3.08
2023-03-07T09:55:17.610Z,2.78
2023-03-07T09:57:51.488Z,2.75
2023-03-07T10:00:33.578Z,3.00
2023-03-07T10:03:41.057Z,3.25
2023-03-07T10:06:25.230Z,3.35
2023-03-07T10:08:54.524Z,3.00
2023-03-07T10:11:40.774Z,3.30
2023-03-07T10:14:28.992Z,3.65
2023-03-07T10:17:23.457Z,3.30
2023-03-07T10:20:08.488Z,3.97
2023-03-07T10:23:17.622Z,4.32
2023-03-07T10:26:09.884Z,3.97
2023-03-07T10:28:42.541Z,4.35
2023-03-07T10:31:28.162Z,5.35
2023-03-07T10:33:55.432Z,4.32
2023-03-07T10:36:47.129Z,4.38
2023-03-07T10:39:45.062Z,4.00
2023-03-07T10:42:14.968Z,5.28
2023-03-07T10:44:42.288Z,4.20
2023-03-07T10:47:26.789Z,3.33
2023-03-07T10:50:02.885Z,3.63
2023-03-07T10:52:39.622Z,3.13
2023-03-07T10:55:36.017Z,3.42
2023-03-07T10:58:28.946Z,3.10
2023-03-07T11:01:05.227Z,2.58
2023-03-07T11:03:52.092Z,2.95
2023-03-07T11:06:36.132Z,2.35
2023-03-07T11:09:31.483Z,2.28
2023-03-07T11:12:20.615Z,2.60
2023-03-07T11:14:59.073Z,2.42
2023-03-07T11:17:43.154Z,3.42
2023-03-07T11:20:24.033Z,1.67
2023-03-07T11:23:13.478Z,2.05
2023-03-07T11:25:40.805Z,1.90
2023-03-07T11:28:30.512Z,1.58
2023-03-07T11:31:30.421Z,2.13
2023-03-07T11:34:01.545Z,1.92
2023-03-07T11:36:36.015Z,1.80
2023-03-07T11:39:41.840Z,1.90
2023-03-07T11:42:26.392Z,1.70
2023-03-07T11:45:00.314Z,1.80
2023-03-07T11:47:43.968Z,1.40
2023-03-07T11:50:21.425Z,1.50
2023-03-07T11:53:47.011Z,1.92
2023-03-07T11:56:29.149Z,1.25
2023-03-07T11:59:16.802Z,1.30
2023-03-07T12:02:25.412Z,1.75
2023-03-07T12:05:16.507Z,1.45
2023-03-07T12:08:37.177Z,1.98
2023-03-07T12:11:07.220Z,1.20
2023-03-07T12:14:28.542Z,2.13
2023-03-07T12:17:27.980Z,1.00
2023-03-07T12:20:13.962Z,1.13
2023-03-07T12:23:21.861Z,0.95
2023-03-07T12:26:05.313Z,0.65
2023-03-07T12:28:48.706Z,0.80
2023-03-07T12:31:24.800Z,0.43
2023-03-07T12:34:07.714Z,0.50
2023-03-07T12:36:57.289Z,1.02
2023-03-07T12:39:31.471Z,0.68
2023-03-07T12:42:02.179Z,0.40
2023-03-07T12:44:50.185Z,0.28
2023-03-07T12:47:42.826Z,0.43
2023-03-07T12:50:49.254Z,0.80
2023-03-07T12:53:55.198Z,0.50
2023-03-07T12:57:01.053Z,0.90
2023-03-07T12:59:32.660Z,0.32
2023-03-07T13:02:25.944Z,0.50
2023-03-07T13:04:53.616Z,0.50
2023-03-07T13:07:27.656Z,0.50
2023-03-07T13:09:58.316Z,0.30
2023-03-07T13:12:29.608Z,0.50
2023-03-07T13:14:59.188Z,0.57
2023-03-07T13:17:46.513Z,0.63
2023-03-07T13:20:19.073Z,0.50
2023-03-07T13:22:46.042Z,0.50
2023-03-07T13:25:51.673Z,0.47
2023-03-07T13:28:42.739Z,0.50
2023-03-07T13:31:15.599Z,0.40
2023-03-07T13:33:43.337Z,0.50
2023-03-07T13:36:37.902Z,0.40
2023-03-07T13:39:38.134Z,0.52
2023-03-07T13:42:08.077Z,0.50
2023-03-07T13:44:41.294Z,0.40
2023-03-07T13:47:45.456Z,0.52
2023-03-07T13:50:51.276Z,0.82
2023-03-07T13:53:23.460Z,0.98
2023-03-07T13:56:10.849Z,0.60
2023-03-07T13:59:11.252Z,0.80
2023-03-07T14:02:00.225Z,0.80
2023-03-07T14:04:51.943Z,0.75
2023-03-07T14:07:35.943Z,0.65
2023-03-07T14:10:22.727Z,0.80
2023-03-07T14:13:26.885Z,0.80
2023-03-07T14:16:13.635Z,0.50
2023-03-07T14:18:47.203Z,0.80
2023-03-07T14:21:32.468Z,1.88
2023-03-07T14:24:27.032Z,0.87
2023-03-07T14:26:59.212Z,0.70
2023-03-07T14:29:30.016Z,1.02
2023-03-07T14:32:01.044Z,1.15
2023-03-07T14:34:36.598Z,0.70
2023-03-07T14:37:09.219Z,0.52
2023-03-07T14:40:22.898Z,0.50
2023-03-07T14:43:01.936Z,0.85
2023-03-07T14:45:42.607Z,0.70
2023-03-07T14:48:43.411Z,0.73
2023-03-07T14:51:27.551Z,1.08
2023-03-07T14:53:58.914Z,0.70
2023-03-07T14:56:32.432Z,0.60
2023-03-07T14:59:02.776Z,0.80
2023-03-07T15:01:37.080Z,0.85
2023-03-07T15:04:21.266Z,0.50
2023-03-07T15:06:58.143Z,0.80
2023-03-07T15:09:26.388Z,0.68
2023-03-07T15:12:02.466Z,0.65
2023-03-07T15:14:51.031Z,0.60
2023-03-07T15:17:35.506Z,0.57
2023-03-07T15:20:16.280Z,0.80
2023-03-07T15:22:44.072Z,0.45
2023-03-07T15:25:20.382Z,0.30
2023-03-07T15:28:00.856Z,0.55
2023-03-07T15:30:33.189Z,0.38
2023-03-07T15:33:18.144Z,0.55
2023-03-07T15:36:08.394Z,0.40
2023-03-07T15:38:36.249Z,0.38
2023-03-07T15:41:33.938Z,0.32
2023-03-07T15:44:17.538Z,0.80
2023-03-07T15:46:54.940Z,0.52
2023-03-07T15:49:43.528Z,0.50
2023-03-07T15:52:35.545Z,0.47
2023-03-07T15:55:08.313Z,0.40
2023-03-07T15:57:52.842Z,0.50
2023-03-07T16:00:29.749Z,0.50
2023-03-07T16:03:17.521Z,0.45
2023-03-07T16:05:44.785Z,0.60
2023-03-07T16:08:15.950Z,0.90
2023-03-07T16:10:58.200Z,0.70
2023-03-07T16:13:31.682Z,0.50
2023-03-07T16:16:19.628Z,0.60
2023-03-07T16:18:47.813Z,0.70
2023-03-07T16:21:16.846Z,0.47
2023-03-07T16:23:44.962Z,0.57
2023-03-07T16:26:22.127Z,0.40
2023-03-07T16:28:53.773Z,0.60
2023-03-07T16:31:21.461Z,0.55
2023-03-07T16:33:49.076Z,0.85
2023-03-07T16:36:16.962Z,0.43
2023-03-07T16:38:47.305Z,0.40
2023-03-07T16:41:22.003Z,0.50
2023-03-07T16:43:57.729Z,0.73
2023-03-07T16:46:25.858Z,0.63
2023-03-07T16:48:53.139Z,0.40
2023-03-07T16:51:23.334Z,0.82
2023-03-07T16:53:51.647Z,0.73
2023-03-07T16:56:49.323Z,1.15
2023-03-07T16:59:19.323Z,0.73
2023-03-07T17:01:49.957Z,1.48
2023-03-07T17:04:18.296Z,1.20
2023-03-07T17:06:48.767Z,0.60
2023-03-07T17:09:19.217Z,1.48
2023-03-07T17:11:49.417Z,0.80
2023-03-07T17:14:18.726Z,1.15
2023-03-07T17:16:50.579Z,1.00
2023-03-07T17:19:30.418Z,1.05
2023-03-07T17:21:59.748Z,0.85
2023-03-07T17:24:29.309Z,1.38
2023-03-07T17:26:59.979Z,1.40
2023-03-07T17:29:42.168Z,1.33
2023-03-07T17:32:09.588Z,1.17
2023-03-07T17:34:38.257Z,1.10
2023-03-07T17:37:06.282Z,2.40
2023-03-07T17:39:34.476Z,1.45
2023-03-07T17:42:02.712Z,1.00
2023-03-07T17:44:30.711Z,1.23
2023-03-07T17:46:58.110Z,1.25
2023-03-07T17:49:26.706Z,1.17
2023-03-07T17:51:53.792Z,0.95
2023-03-07T17:54:20.979Z,1.20
2023-03-07T17:56:48.482Z,1.38
2023-03-07T17:59:15.588Z,1.42
2023-03-07T18:01:42.711Z,1.40
2023-03-07T18:04:10.241Z,1.48
2023-03-07T18:06:39.408Z,0.60
2023-03-07T18:09:09.228Z,1.17
2023-03-07T18:11:36.344Z,1.13
2023-03-07T18:14:03.838Z,0.70
2023-03-07T18:16:31.218Z,0.90
2023-03-07T18:19:00.756Z,0.50
2023-03-07T18:21:29.988Z,0.85
2023-03-07T18:23:57.507Z,0.80
2023-03-07T18:26:24.698Z,0.60
2023-03-07T18:28:53.870Z,0.73
2023-03-07T18:31:30.421Z,0.95
2023-03-07T18:33:57.853Z,0.93
2023-03-07T18:36:25.785Z,0.88
2023-03-07T18:38:53.114Z,0.52
2023-03-07T18:41:25.419Z,1.25
2023-03-07T18:43:57.593Z,0.75
2023-03-07T18:46:30.664Z,0.80
2023-03-07T18:48:59.480Z,0.88
2023-03-07T18:51:27.775Z,0.60
2023-03-07T18:54:00.122Z,0.95
2023-03-07T18:56:28.800Z,0.82
2023-03-07T18:58:59.067Z,0.60
2023-03-07T19:01:32.420Z,0.47
2023-03-07T19:04:03.325Z,0.80
2023-03-07T19:06:40.597Z,0.73
2023-03-07T19:09:19.746Z,0.73
2023-03-07T19:11:47.676Z,0.60
2023-03-07T19:14:14.815Z,0.75
2023-03-07T19:16:41.878Z,2.05
2023-03-07T19:19:09.090Z,0.43
2023-03-07T19:21:36.459Z,0.73
2023-03-07T19:24:05.660Z,0.40
2023-03-07T19:26:33.703Z,0.50
2023-03-07T19:29:00.903Z,0.57
2023-03-07T19:31:31.099Z,0.60
2023-03-07T19:33:58.722Z,0.75
2023-03-07T19:36:29.083Z,0.65
2023-03-07T19:38:59.194Z,0.57
2023-03-07T19:41:29.258Z,0.70
2023-03-07T19:43:58.620Z,0.55
2023-03-07T19:46:26.295Z,0.70
2023-03-07T19:48:53.493Z,0.70
2023-03-07T19:51:23.733Z,0.70
2023-03-07T19:53:51.878Z,0.70
2023-03-07T19:56:27.924Z,1.13
2023-03-07T19:58:55.847Z,0.90
2023-03-07T20:01:23.853Z,0.80
2023-03-07T20:03:51.520Z,0.52
2023-03-07T20:06:22.399Z,1.02
2023-03-07T20:08:51.629Z,0.60
2023-03-07T20:11:22.241Z,0.60
2023-03-07T20:13:50.341Z,1.00
2023-03-07T20:16:19.764Z,0.80
2023-03-07T20:18:51.942Z,0.80
2023-03-07T20:21:21.126Z,1.23
2023-03-07T20:23:48.611Z,0.85
2023-03-07T20:26:20.285Z,1.23
2023-03-07T20:28:47.342Z,1.10
2023-03-07T20:31:14.619Z,1.30
2023-03-07T20:33:47.557Z,1.15
2023-03-07T20:36:25.714Z,0.93
2023-03-07T20:38:59.425Z,1.30
2023-03-07T20:41:30.698Z,3.35
2023-03-07T20:44:00.950Z,1.98
2023-03-07T20:46:28.515Z,2.08
2023-03-07T20:48:57.365Z,2.25
2023-03-07T20:51:28.720Z,2.03
2023-03-07T20:54:08.865Z,2.20
2023-03-07T20:56:38.474Z,1.77
2023-03-07T20:59:07.102Z,3.05
2023-03-07T21:01:35.942Z,2.10
2023-03-07T21:04:10.939Z,2.30
2023-03-07T21:06:41.700Z,2.53
2023-03-07T21:09:11.581Z,2.88
2023-03-07T21:11:42.653Z,3.42
2023-03-07T21:14:09.662Z,2.97
2023-03-07T21:16:36.764Z,3.08
2023-03-07T21:19:06.361Z,2.97
2023-03-07T21:21:35.223Z,3.17
2023-03-07T21:24:02.386Z,3.30
2023-03-07T21:26:33.126Z,3.85
2023-03-07T21:29:00.447Z,3.70
2023-03-07T21:31:31.099Z,3.72
2023-03-07T21:34:07.133Z,4.20
2023-03-07T21:36:34.930Z,4.20
2023-03-07T21:39:04.251Z,3.88
2023-03-07T21:41:31.311Z,5.15
2023-03-07T21:44:00.342Z,4.97
2023-03-07T21:46:28.039Z,5.15
2023-03-07T21:48:58.272Z,4.80
2023-03-07T21:51:25.212Z,4.85
2023-03-07T21:53:52.138Z,5.35
2023-03-07T21:56:19.322Z,4.93
2023-03-07T21:58:50.286Z,5.60
2023-03-07T22:01:26.549Z,4.43
2023-03-07T22:03:55.865Z,4.97
2023-03-07T22:06:23.772Z,4.75
2023-03-07T22:08:50.936Z,6.03
2023-03-07T22:11:17.919Z,5.30
2023-03-07T22:13:45.082Z,5.57
2023-03-07T22:16:20.537Z,5.30
2023-03-07T22:18:55.807Z,6.18
2023-03-07T22:21:26.052Z,5.07
2023-03-07T22:24:00.984Z,5.90
2023-03-07T22:26:30.374Z,5.32
2023-03-07T22:28:58.152Z,4.65
2023-03-07T22:31:26.189Z,4.90
2023-03-07T22:33:54.666Z,4.47
2023-03-07T22:36:21.840Z,5.22
2023-03-07T22:38:55.401Z,4.55
2023-03-07T22:41:23.579Z,4.15
2023-03-07T22:43:52.074Z,4.45
2023-03-07T22:46:19.249Z,3.67
2023-03-07T22:49:11.859Z,4.40
2023-03-07T22:51:39.221Z,3.85
2023-03-07T22:54:07.664Z,4.40
2023-03-07T22:56:35.197Z,4.43
2023-03-07T22:59:04.142Z,3.90
2023-03-07T23:01:31.731Z,3.42
2023-03-07T23:04:00.241Z,2.97
2023-03-07T23:06:32.356Z,3.33
2023-03-07T23:09:00.284Z,3.72
2023-03-07T23:11:30.723Z,3.45
2023-03-07T23:13:58.311Z,3.28
2023-03-07T23:16:28.524Z,3.10
2023-03-07T23:18:57.665Z,2.85
2023-03-07T23:21:31.675Z,2.95
2023-03-07T23:24:00.524Z,3.05
2023-03-07T23:26:34.965Z,3.65
2023-03-07T23:29:02.997Z,3.05
2023-03-07T23:31:35.312Z,3.45
2023-03-07T23:34:06.474Z,2.88
2023-03-07T23:36:33.850Z,2.65
2023-03-07T23:39:00.960Z,4.13
2023-03-07T23:41:28.257Z,3.05
2023-03-07T23:43:57.613Z,2.80
2023-03-07T23:46:25.424Z,2.97
2023-03-07T23:48:53.439Z,2.35
2023-03-07T23:51:21.287Z,2.50
2023-03-07T23:53:48.299Z,2.85
2023-03-07T23:56:15.721Z,2.50
2023-03-07T23:58:44.066Z,2.55
